sensor_id;sensor_type;location;lat;lon;timestamp;pressure;altitude;pressure_sealevel;temperature;humidity
45078;BME280;60508;42.622;25.416;2023-02-22T00:01:31;96519.81;;;14.62;28.79
45078;BME280;60508;42.622;25.416;2023-02-22T00:04:05;96518.16;;;14.55;28.60
45078;BME280;60508;42.622;25.416;2023-02-22T00:06:32;96523.31;;;14.52;28.15
45078;BME280;60508;42.622;25.416;2023-02-22T00:08:58;96527.38;;;14.49;28.87
45078;BME280;60508;42.622;25.416;2023-02-22T00:11:25;96527.13;;;14.40;29.02
45078;BME280;60508;42.622;25.416;2023-02-22T00:13:51;96515.50;;;14.35;28.73
45078;BME280;60508;42.622;25.416;2023-02-22T00:16:20;96519.03;;;14.40;28.41
45078;BME280;60508;42.622;25.416;2023-02-22T00:18:47;96530.38;;;14.42;28.98
45078;BME280;60508;42.622;25.416;2023-02-22T00:21:14;96527.13;;;14.40;28.64
45078;BME280;60508;42.622;25.416;2023-02-22T00:23:43;96526.31;;;14.40;28.37
45078;BME280;60508;42.622;25.416;2023-02-22T00:26:12;96530.63;;;14.41;28.45
45078;BME280;60508;42.622;25.416;2023-02-22T00:28:53;96532.25;;;14.37;28.91
45078;BME280;60508;42.622;25.416;2023-02-22T00:31:20;96525.25;;;14.31;28.48
45078;BME280;60508;42.622;25.416;2023-02-22T00:33:48;96528.25;;;14.29;29.18
45078;BME280;60508;42.622;25.416;2023-02-22T00:36:16;96530.38;;;14.32;28.23
45078;BME280;60508;42.622;25.416;2023-02-22T00:38:41;96516.31;;;14.40;28.52
45078;BME280;60508;42.622;25.416;2023-02-22T00:41:08;96524.69;;;14.44;28.26
45078;BME280;60508;42.622;25.416;2023-02-22T00:43:35;96520.34;;;14.43;28.60
45078;BME280;60508;42.622;25.416;2023-02-22T00:46:02;96522.50;;;14.46;28.64
45078;BME280;60508;42.622;25.416;2023-02-22T00:48:27;96512.25;;;14.43;29.09
45078;BME280;60508;42.622;25.416;2023-02-22T00:50:53;96514.72;;;14.34;28.61
45078;BME280;60508;42.622;25.416;2023-02-22T00:53:22;96503.91;;;14.29;29.14
45078;BME280;60508;42.622;25.416;2023-02-22T00:55:48;96520.38;;;14.38;29.16
45078;BME280;60508;42.622;25.416;2023-02-22T00:58:15;96502.00;;;14.35;29.06
45078;BME280;60508;42.622;25.416;2023-02-22T01:00:42;96503.09;;;14.39;29.05
45078;BME280;60508;42.622;25.416;2023-02-22T01:03:10;96507.66;;;14.38;29.27
45078;BME280;60508;42.622;25.416;2023-02-22T01:05:36;96509.56;;;14.38;29.22
45078;BME280;60508;42.622;25.416;2023-02-22T01:08:07;96507.66;;;14.38;29.42
45078;BME280;60508;42.622;25.416;2023-02-22T01:10:33;96507.13;;;14.36;29.13
45078;BME280;60508;42.622;25.416;2023-02-22T01:13:00;96515.25;;;14.36;29.29
45078;BME280;60508;42.622;25.416;2023-02-22T01:15:28;96512.56;;;14.21;30.05
45078;BME280;60508;42.622;25.416;2023-02-22T01:17:56;96513.94;;;13.98;30.08
45078;BME280;60508;42.622;25.416;2023-02-22T01:20:25;96523.41;;;13.95;30.33
45078;BME280;60508;42.622;25.416;2023-02-22T01:22:53;96514.50;;;13.84;30.78
45078;BME280;60508;42.622;25.416;2023-02-22T01:25:21;96503.97;;;13.62;31.01
45078;BME280;60508;42.622;25.416;2023-02-22T01:27:49;96507.47;;;13.58;30.88
45078;BME280;60508;42.622;25.416;2023-02-22T01:30:19;96512.88;;;13.52;30.93
45078;BME280;60508;42.622;25.416;2023-02-22T01:32:45;96496.63;;;13.27;31.39
45078;BME280;60508;42.622;25.416;2023-02-22T01:35:13;96510.63;;;13.19;31.13
45078;BME280;60508;42.622;25.416;2023-02-22T01:37:40;96494.19;;;13.10;32.03
45078;BME280;60508;42.622;25.416;2023-02-22T01:40:09;96518.19;;;13.22;31.73
45078;BME280;60508;42.622;25.416;2023-02-22T01:42:35;96512.28;;;13.25;31.22
45078;BME280;60508;42.622;25.416;2023-02-22T01:45:37;96517.94;;;13.18;31.11
45078;BME280;60508;42.622;25.416;2023-02-22T01:48:44;96512.53;;;13.13;31.41
45078;BME280;60508;42.622;25.416;2023-02-22T01:51:21;96520.56;;;13.03;31.08
45078;BME280;60508;42.622;25.416;2023-02-22T01:53:54;96514.38;;;12.97;31.40
45078;BME280;60508;42.622;25.416;2023-02-22T01:56:24;96520.81;;;12.91;31.77
45078;BME280;60508;42.622;25.416;2023-02-22T01:59:01;96511.09;;;12.90;31.94
45078;BME280;60508;42.622;25.416;2023-02-22T02:01:29;96519.44;;;12.88;32.34
45078;BME280;60508;42.622;25.416;2023-02-22T02:03:57;96525.34;;;12.85;32.32
45078;BME280;60508;42.622;25.416;2023-02-22T02:06:25;96520.22;;;12.84;31.73
45078;BME280;60508;42.622;25.416;2023-02-22T02:11:28;96522.13;;;12.88;31.53
45078;BME280;60508;42.622;25.416;2023-02-22T02:13:58;96525.84;;;12.72;31.99
45078;BME280;60508;42.622;25.416;2023-02-22T02:16:45;96525.50;;;12.53;32.29
45078;BME280;60508;42.622;25.416;2023-02-22T02:24:55;96532.56;;;12.64;33.15
45078;BME280;60508;42.622;25.416;2023-02-22T02:30:48;96534.19;;;12.70;32.96
45078;BME280;60508;42.622;25.416;2023-02-22T02:33:28;96533.94;;;12.72;33.51
45078;BME280;60508;42.622;25.416;2023-02-22T02:36:06;96529.69;;;12.81;33.03
45078;BME280;60508;42.622;25.416;2023-02-22T02:38:48;96527.28;;;12.95;33.33
45078;BME280;60508;42.622;25.416;2023-02-22T02:41:26;96523.53;;;13.01;32.67
45078;BME280;60508;42.622;25.416;2023-02-22T02:44:27;96517.34;;;13.11;32.96
45078;BME280;60508;42.622;25.416;2023-02-22T02:47:09;96529.25;;;13.25;32.82
45078;BME280;60508;42.622;25.416;2023-02-22T02:52:24;96527.16;;;13.43;32.92
45078;BME280;60508;42.622;25.416;2023-02-22T02:54:53;96521.22;;;13.41;32.44
45078;BME280;60508;42.622;25.416;2023-02-22T02:57:20;96529.25;;;13.30;33.03
45078;BME280;60508;42.622;25.416;2023-02-22T02:59:46;96551.03;;;12.98;32.70
45078;BME280;60508;42.622;25.416;2023-02-22T03:05:26;96528.78;;;12.60;33.85
45078;BME280;60508;42.622;25.416;2023-02-22T03:08:27;96547.50;;;12.87;33.97
45078;BME280;60508;42.622;25.416;2023-02-22T03:11:09;96513.25;;;12.93;33.68
45078;BME280;60508;42.622;25.416;2023-02-22T03:19:26;96537.88;;;13.22;33.72
45078;BME280;60508;42.622;25.416;2023-02-22T03:22:05;96524.13;;;13.24;33.73
45078;BME280;60508;42.622;25.416;2023-02-22T03:24:41;96536.56;;;13.30;34.18
45078;BME280;60508;42.622;25.416;2023-02-22T03:27:30;96518.19;;;13.27;34.03
45078;BME280;60508;42.622;25.416;2023-02-22T03:30:02;96533.34;;;13.33;34.14
45078;BME280;60508;42.622;25.416;2023-02-22T03:32:35;96529.25;;;13.30;34.28
45078;BME280;60508;42.622;25.416;2023-02-22T03:35:10;96516.34;;;13.27;34.27
45078;BME280;60508;42.622;25.416;2023-02-22T03:37:48;96527.69;;;13.40;34.55
45078;BME280;60508;42.622;25.416;2023-02-22T03:40:30;96531.50;;;13.44;34.09
45078;BME280;60508;42.622;25.416;2023-02-22T03:43:02;96546.31;;;13.46;34.57
45078;BME280;60508;42.622;25.416;2023-02-22T03:45:32;96537.44;;;13.46;34.06
45078;BME280;60508;42.622;25.416;2023-02-22T03:48:04;96547.97;;;13.47;34.44
45078;BME280;60508;42.622;25.416;2023-02-22T03:50:34;96538.50;;;13.40;34.38
45078;BME280;60508;42.622;25.416;2023-02-22T03:53:00;96538.50;;;13.35;34.72
45078;BME280;60508;42.622;25.416;2023-02-22T03:55:29;96530.34;;;13.24;34.83
45078;BME280;60508;42.622;25.416;2023-02-22T03:57:58;96533.06;;;13.24;34.91
45078;BME280;60508;42.622;25.416;2023-02-22T04:00:29;96537.91;;;13.27;35.12
45078;BME280;60508;42.622;25.416;2023-02-22T04:02:57;96530.63;;;13.28;34.64
45078;BME280;60508;42.622;25.416;2023-02-22T04:05:24;96523.06;;;13.20;35.04
45078;BME280;60508;42.622;25.416;2023-02-22T04:07:56;96530.34;;;13.24;35.14
45078;BME280;60508;42.622;25.416;2023-02-22T04:10:22;96535.47;;;13.26;34.90
45078;BME280;60508;42.622;25.416;2023-02-22T04:12:49;96529.78;;;13.22;35.08
45078;BME280;60508;42.622;25.416;2023-02-22T04:15:19;96518.72;;;13.19;34.88
45078;BME280;60508;42.622;25.416;2023-02-22T04:17:47;96528.72;;;13.23;34.93
45078;BME280;60508;42.622;25.416;2023-02-22T04:20:14;96515.75;;;13.20;34.61
45078;BME280;60508;42.622;25.416;2023-02-22T04:22:55;96513.00;;;13.05;35.34
45078;BME280;60508;42.622;25.416;2023-02-22T04:25:22;96522.72;;;13.01;35.43
45078;BME280;60508;42.622;25.416;2023-02-22T04:27:48;96542.16;;;13.08;35.42
45078;BME280;60508;42.622;25.416;2023-02-22T04:30:19;96532.72;;;13.10;35.71
45078;BME280;60508;42.622;25.416;2023-02-22T04:32:46;96551.06;;;13.08;35.27
45078;BME280;60508;42.622;25.416;2023-02-22T04:35:14;96555.91;;;13.06;35.21
45078;BME280;60508;42.622;25.416;2023-02-22T04:37:41;96545.00;;;12.70;35.01
45078;BME280;60508;42.622;25.416;2023-02-22T04:40:08;96549.72;;;12.48;35.97
45078;BME280;60508;42.622;25.416;2023-02-22T04:42:35;96550.53;;;12.05;36.78
45078;BME280;60508;42.622;25.416;2023-02-22T04:45:04;96543.59;;;12.15;37.10
45078;BME280;60508;42.622;25.416;2023-02-22T04:47:30;96538.34;;;12.35;37.18
45078;BME280;60508;42.622;25.416;2023-02-22T04:49:58;96548.94;;;12.52;36.68
45078;BME280;60508;42.622;25.416;2023-02-22T04:52:26;96542.78;;;12.62;36.66
45078;BME280;60508;42.622;25.416;2023-02-22T04:54:52;96554.16;;;12.69;36.13
45078;BME280;60508;42.622;25.416;2023-02-22T04:57:18;96530.44;;;12.66;36.38
45078;BME280;60508;42.622;25.416;2023-02-22T04:59:44;96547.19;;;12.78;35.54
45078;BME280;60508;42.622;25.416;2023-02-22T05:02:11;96548.53;;;12.76;36.01
45078;BME280;60508;42.622;25.416;2023-02-22T05:04:38;96552.78;;;12.67;35.88
45078;BME280;60508;42.622;25.416;2023-02-22T05:07:04;96560.56;;;12.58;36.27
45078;BME280;60508;42.622;25.416;2023-02-22T05:09:31;96553.31;;;12.64;36.03
45078;BME280;60508;42.622;25.416;2023-02-22T05:11:57;96554.44;;;12.68;35.85
45078;BME280;60508;42.622;25.416;2023-02-22T05:14:23;96551.41;;;12.64;36.33
45078;BME280;60508;42.622;25.416;2023-02-22T05:16:54;96562.25;;;12.69;36.62
45078;BME280;60508;42.622;25.416;2023-02-22T05:19:20;96570.53;;;12.63;36.69
45078;BME280;60508;42.622;25.416;2023-02-22T05:21:47;96566.22;;;12.56;36.69
45078;BME280;60508;42.622;25.416;2023-02-22T05:24:13;96571.50;;;12.41;36.76
45078;BME280;60508;42.622;25.416;2023-02-22T05:26:42;96572.69;;;12.55;36.20
45078;BME280;60508;42.622;25.416;2023-02-22T05:29:08;96588.06;;;12.60;36.20
45078;BME280;60508;42.622;25.416;2023-02-22T05:31:34;96583.44;;;12.50;36.53
45078;BME280;60508;42.622;25.416;2023-02-22T05:34:00;96585.84;;;12.47;36.18
45078;BME280;60508;42.622;25.416;2023-02-22T05:36:26;96578.44;;;12.32;36.27
45078;BME280;60508;42.622;25.416;2023-02-22T05:38:54;96593.03;;;12.36;36.20
45078;BME280;60508;42.622;25.416;2023-02-22T05:41:20;96593.31;;;12.39;36.36
45078;BME280;60508;42.622;25.416;2023-02-22T05:43:47;96581.66;;;12.29;36.82
45078;BME280;60508;42.622;25.416;2023-02-22T05:46:13;96596.22;;;12.28;37.25
45078;BME280;60508;42.622;25.416;2023-02-22T05:48:39;96602.13;;;12.24;37.34
45078;BME280;60508;42.622;25.416;2023-02-22T05:51:07;96591.38;;;12.30;37.46
45078;BME280;60508;42.622;25.416;2023-02-22T05:53:34;96599.00;;;12.43;37.64
45078;BME280;60508;42.622;25.416;2023-02-22T05:56:00;96604.75;;;12.57;37.68
45078;BME280;60508;42.622;25.416;2023-02-22T05:58:26;96599.19;;;12.74;37.62
45078;BME280;60508;42.622;25.416;2023-02-22T06:00:52;96601.44;;;12.92;37.00
45078;BME280;60508;42.622;25.416;2023-02-22T06:03:18;96604.78;;;13.15;35.84
45078;BME280;60508;42.622;25.416;2023-02-22T06:05:44;96611.59;;;13.33;35.47
45078;BME280;60508;42.622;25.416;2023-02-22T06:08:10;96615.44;;;13.47;35.34
45078;BME280;60508;42.622;25.416;2023-02-22T06:10:37;96623.00;;;13.61;35.22
45078;BME280;60508;42.622;25.416;2023-02-22T06:13:05;96612.78;;;13.68;35.08
45078;BME280;60508;42.622;25.416;2023-02-22T06:15:31;96624.69;;;13.82;34.50
45078;BME280;60508;42.622;25.416;2023-02-22T06:17:58;96625.22;;;13.90;34.75
45078;BME280;60508;42.622;25.416;2023-02-22T06:20:27;96630.63;;;14.00;34.45
45078;BME280;60508;42.622;25.416;2023-02-22T06:22:54;96628.22;;;14.09;34.03
45078;BME280;60508;42.622;25.416;2023-02-22T06:25:24;96614.72;;;14.14;33.85
45078;BME280;60508;42.622;25.416;2023-02-22T06:27:50;96632.53;;;14.35;33.80
45078;BME280;60508;42.622;25.416;2023-02-22T06:30:18;96637.13;;;14.50;33.92
45078;BME280;60508;42.622;25.416;2023-02-22T06:32:44;96626.84;;;14.57;33.33
45078;BME280;60508;42.622;25.416;2023-02-22T06:35:10;96620.06;;;14.75;33.49
45078;BME280;60508;42.622;25.416;2023-02-22T06:37:35;96623.81;;;14.95;33.11
45078;BME280;60508;42.622;25.416;2023-02-22T06:40:04;96628.06;;;15.11;33.44
45078;BME280;60508;42.622;25.416;2023-02-22T06:42:29;96628.03;;;15.27;33.39
45078;BME280;60508;42.622;25.416;2023-02-22T06:44:56;96620.38;;;15.44;33.47
45078;BME280;60508;42.622;25.416;2023-02-22T06:47:22;96632.47;;;15.62;33.68
45078;BME280;60508;42.622;25.416;2023-02-22T06:49:57;96626.78;;;15.64;33.67
45078;BME280;60508;42.622;25.416;2023-02-22T06:52:24;96618.09;;;15.67;33.41
45078;BME280;60508;42.622;25.416;2023-02-22T06:54:50;96608.28;;;15.71;33.50
45078;BME280;60508;42.622;25.416;2023-02-22T06:57:16;96626.16;;;15.77;33.86
45078;BME280;60508;42.622;25.416;2023-02-22T06:59:43;96616.13;;;15.83;33.66
45078;BME280;60508;42.622;25.416;2023-02-22T07:02:10;96623.63;;;15.96;33.73
45078;BME280;60508;42.622;25.416;2023-02-22T07:04:37;96619.84;;;15.92;33.41
45078;BME280;60508;42.622;25.416;2023-02-22T07:07:03;96613.56;;;15.97;33.38
45078;BME280;60508;42.622;25.416;2023-02-22T07:09:29;96617.13;;;15.97;33.72
45078;BME280;60508;42.622;25.416;2023-02-22T07:11:55;96614.41;;;15.92;33.80
45078;BME280;60508;42.622;25.416;2023-02-22T07:14:21;96605.13;;;16.03;33.62
45078;BME280;60508;42.622;25.416;2023-02-22T07:16:48;96612.38;;;16.13;33.64
45078;BME280;60508;42.622;25.416;2023-02-22T07:19:13;96609.34;;;16.20;33.23
45078;BME280;60508;42.622;25.416;2023-02-22T07:21:39;96615.06;;;16.18;33.40
45078;BME280;60508;42.622;25.416;2023-02-22T07:24:06;96607.97;;;16.22;32.97
45078;BME280;60508;42.622;25.416;2023-02-22T07:26:40;96613.50;;;16.41;32.66
45078;BME280;60508;42.622;25.416;2023-02-22T07:29:06;96600.66;;;16.52;32.39
45078;BME280;60508;42.622;25.416;2023-02-22T07:31:37;96598.13;;;16.61;32.18
45078;BME280;60508;42.622;25.416;2023-02-22T07:34:03;96599.34;;;16.74;31.69
45078;BME280;60508;42.622;25.416;2023-02-22T07:36:31;96591.91;;;16.85;31.91
45078;BME280;60508;42.622;25.416;2023-02-22T07:38:57;96590.81;;;16.91;31.83
45078;BME280;60508;42.622;25.416;2023-02-22T07:41:24;96583.81;;;17.09;31.21
45078;BME280;60508;42.622;25.416;2023-02-22T07:43:50;96586.50;;;17.09;31.11
45078;BME280;60508;42.622;25.416;2023-02-22T07:46:16;96582.78;;;17.24;31.13
45078;BME280;60508;42.622;25.416;2023-02-22T07:48:42;96588.34;;;17.38;31.09
45078;BME280;60508;42.622;25.416;2023-02-22T07:51:09;96585.84;;;17.41;30.43
45078;BME280;60508;42.622;25.416;2023-02-22T07:53:35;96594.28;;;17.40;29.93
45078;BME280;60508;42.622;25.416;2023-02-22T07:56:03;96582.25;;;17.46;29.55
45078;BME280;60508;42.622;25.416;2023-02-22T07:58:30;96583.03;;;17.46;28.95
45078;BME280;60508;42.622;25.416;2023-02-22T08:00:58;96578.69;;;17.45;28.98
45078;BME280;60508;42.622;25.416;2023-02-22T08:03:26;96580.91;;;17.43;28.58
45078;BME280;60508;42.622;25.416;2023-02-22T08:05:54;96587.69;;;17.46;28.83
45078;BME280;60508;42.622;25.416;2023-02-22T08:08:21;96583.44;;;17.59;28.46
45078;BME280;60508;42.622;25.416;2023-02-22T08:10:49;96577.41;;;17.62;28.15
45078;BME280;60508;42.622;25.416;2023-02-22T08:13:16;96575.84;;;17.75;28.29
45078;BME280;60508;42.622;25.416;2023-02-22T08:15:43;96576.97;;;17.93;27.73
45078;BME280;60508;42.622;25.416;2023-02-22T08:18:11;96566.22;;;18.01;28.08
45078;BME280;60508;42.622;25.416;2023-02-22T08:20:40;96573.84;;;18.18;28.45
45078;BME280;60508;42.622;25.416;2023-02-22T08:23:07;96580.19;;;18.28;29.22
45078;BME280;60508;42.622;25.416;2023-02-22T08:25:33;96575.28;;;18.30;29.02
45078;BME280;60508;42.622;25.416;2023-02-22T08:28:01;96578.63;;;18.40;28.84
45078;BME280;60508;42.622;25.416;2023-02-22T08:30:30;96571.06;;;18.37;28.56
45078;BME280;60508;42.622;25.416;2023-02-22T08:32:57;96573.88;;;18.32;29.10
45078;BME280;60508;42.622;25.416;2023-02-22T08:35:23;96568.97;;;18.48;29.23
45078;BME280;60508;42.622;25.416;2023-02-22T08:37:52;96567.34;;;18.47;29.18
45078;BME280;60508;42.622;25.416;2023-02-22T08:40:20;96574.22;;;18.58;28.44
45078;BME280;60508;42.622;25.416;2023-02-22T08:42:47;96579.16;;;18.56;27.84
45078;BME280;60508;42.622;25.416;2023-02-22T08:45:14;96572.63;;;18.71;27.63
45078;BME280;60508;42.622;25.416;2023-02-22T08:47:40;96577.03;;;18.86;28.50
45078;BME280;60508;42.622;25.416;2023-02-22T08:50:08;96576.50;;;19.12;28.73
45078;BME280;60508;42.622;25.416;2023-02-22T08:52:34;96577.59;;;19.25;28.08
45078;BME280;60508;42.622;25.416;2023-02-22T08:55:00;96578.94;;;19.78;27.66
45078;BME280;60508;42.622;25.416;2023-02-22T08:57:27;96576.03;;;20.19;26.88
45078;BME280;60508;42.622;25.416;2023-02-22T08:59:52;96581.44;;;20.33;26.83
45078;BME280;60508;42.622;25.416;2023-02-22T09:02:20;96576.19;;;20.68;26.33
45078;BME280;60508;42.622;25.416;2023-02-22T09:04:47;96564.22;;;20.87;26.01
45078;BME280;60508;42.622;25.416;2023-02-22T09:07:14;96571.84;;;21.56;25.37
45078;BME280;60508;42.622;25.416;2023-02-22T09:09:44;96564.91;;;22.11;24.79
45078;BME280;60508;42.622;25.416;2023-02-22T09:12:10;96579.03;;;22.66;24.02
45078;BME280;60508;42.622;25.416;2023-02-22T09:14:37;96574.75;;;23.24;23.76
45078;BME280;60508;42.622;25.416;2023-02-22T09:17:03;96568.31;;;23.20;23.25
45078;BME280;60508;42.622;25.416;2023-02-22T09:19:29;96582.72;;;24.31;22.59
45078;BME280;60508;42.622;25.416;2023-02-22T09:21:58;96575.88;;;24.83;21.47
45078;BME280;60508;42.622;25.416;2023-02-22T09:24:27;96575.72;;;25.91;20.60
45078;BME280;60508;42.622;25.416;2023-02-22T09:26:52;96573.50;;;27.13;19.37
45078;BME280;60508;42.622;25.416;2023-02-22T09:29:23;96575.19;;;27.02;19.00
45078;BME280;60508;42.622;25.416;2023-02-22T09:31:52;96569.78;;;26.89;19.41
45078;BME280;60508;42.622;25.416;2023-02-22T09:34:20;96573.50;;;27.29;18.71
45078;BME280;60508;42.622;25.416;2023-02-22T09:36:48;96556.66;;;27.85;18.44
45078;BME280;60508;42.622;25.416;2023-02-22T09:39:16;96573.44;;;27.09;18.70
45078;BME280;60508;42.622;25.416;2023-02-22T09:41:46;96557.22;;;27.40;18.88
45078;BME280;60508;42.622;25.416;2023-02-22T09:44:24;96564.47;;;27.64;18.22
45078;BME280;60508;42.622;25.416;2023-02-22T09:46:53;96578.19;;;28.54;17.72
45078;BME280;60508;42.622;25.416;2023-02-22T09:49:28;96564.72;;;28.72;17.53
45078;BME280;60508;42.622;25.416;2023-02-22T09:52:07;96571.78;;;28.70;17.72
45078;BME280;60508;42.622;25.416;2023-02-22T09:54:39;96567.66;;;28.40;17.84
45078;BME280;60508;42.622;25.416;2023-02-22T09:57:12;96581.56;;;28.64;17.50
45078;BME280;60508;42.622;25.416;2023-02-22T09:59:45;96574.06;;;28.45;17.81
45078;BME280;60508;42.622;25.416;2023-02-22T10:02:16;96572.53;;;28.67;17.47
45078;BME280;60508;42.622;25.416;2023-02-22T10:04:56;96563.47;;;28.50;17.68
45078;BME280;60508;42.622;25.416;2023-02-22T10:07:30;96566.06;;;28.82;17.47
45078;BME280;60508;42.622;25.416;2023-02-22T10:09:59;96570.38;;;29.26;17.13
45078;BME280;60508;42.622;25.416;2023-02-22T10:12:58;96562.78;;;29.76;16.71
45078;BME280;60508;42.622;25.416;2023-02-22T10:21:03;96560.41;;;30.73;15.70
45078;BME280;60508;42.622;25.416;2023-02-22T10:24:13;96546.78;;;29.89;16.06
45078;BME280;60508;42.622;25.416;2023-02-22T10:26:43;96536.88;;;29.08;16.67
45078;BME280;60508;42.622;25.416;2023-02-22T10:29:51;96553.03;;;29.82;16.28
45078;BME280;60508;42.622;25.416;2023-02-22T10:32:25;96555.63;;;30.02;16.03
45078;BME280;60508;42.622;25.416;2023-02-22T10:34:53;96543.72;;;30.66;15.79
45078;BME280;60508;42.622;25.416;2023-02-22T10:40:11;96536.69;;;30.79;16.11
45078;BME280;60508;42.622;25.416;2023-02-22T10:42:38;96544.88;;;31.54;15.35
45078;BME280;60508;42.622;25.416;2023-02-22T10:45:13;96534.34;;;31.96;14.89
45078;BME280;60508;42.622;25.416;2023-02-22T10:47:44;96522.59;;;31.50;15.18
45078;BME280;60508;42.622;25.416;2023-02-22T10:50:12;96522.28;;;30.63;15.84
45078;BME280;60508;42.622;25.416;2023-02-22T10:52:39;96504.91;;;30.66;15.89
45078;BME280;60508;42.622;25.416;2023-02-22T10:55:15;96515.94;;;31.07;15.91
45078;BME280;60508;42.622;25.416;2023-02-22T10:57:43;96507.41;;;31.30;15.32
45078;BME280;60508;42.622;25.416;2023-02-22T11:00:28;96506.97;;;31.94;15.03
45078;BME280;60508;42.622;25.416;2023-02-22T11:02:56;96517.16;;;32.67;13.86
45078;BME280;60508;42.622;25.416;2023-02-22T11:08:28;96508.81;;;33.21;14.57
45078;BME280;60508;42.622;25.416;2023-02-22T11:10:59;96501.41;;;34.10;13.11
45078;BME280;60508;42.622;25.416;2023-02-22T11:13:38;96506.31;;;34.66;12.36
45078;BME280;60508;42.622;25.416;2023-02-22T11:16:33;96500.06;;;34.44;12.35
45078;BME280;60508;42.622;25.416;2023-02-22T11:21:32;96492.06;;;34.53;12.56
45078;BME280;60508;42.622;25.416;2023-02-22T11:24:04;96486.72;;;34.73;12.35
45078;BME280;60508;42.622;25.416;2023-02-22T11:26:42;96486.97;;;34.93;11.98
45078;BME280;60508;42.622;25.416;2023-02-22T11:29:33;96489.63;;;34.55;12.38
45078;BME280;60508;42.622;25.416;2023-02-22T11:32:19;96484.84;;;33.78;12.86
45078;BME280;60508;42.622;25.416;2023-02-22T11:34:48;96479.38;;;33.31;13.04
45078;BME280;60508;42.622;25.416;2023-02-22T11:40:13;96481.28;;;33.56;12.97
45078;BME280;60508;42.622;25.416;2023-02-22T11:42:45;96470.66;;;34.35;12.50
45078;BME280;60508;42.622;25.416;2023-02-22T11:50:26;96473.47;;;34.88;11.35
45078;BME280;60508;42.622;25.416;2023-02-22T12:09:16;96447.25;;;34.74;11.58
45078;BME280;60508;42.622;25.416;2023-02-22T12:12:02;96452.66;;;34.44;12.32
45078;BME280;60508;42.622;25.416;2023-02-22T12:14:47;96447.31;;;34.64;11.58
45078;BME280;60508;42.622;25.416;2023-02-22T12:17:36;96448.88;;;34.76;11.36
45078;BME280;60508;42.622;25.416;2023-02-22T12:20:25;96444.34;;;35.34;11.01
45078;BME280;60508;42.622;25.416;2023-02-22T12:23:01;96438.84;;;34.78;11.21
45078;BME280;60508;42.622;25.416;2023-02-22T12:25:31;96434.47;;;35.22;11.27
45078;BME280;60508;42.622;25.416;2023-02-22T12:28:18;96439.38;;;35.07;10.95
45078;BME280;60508;42.622;25.416;2023-02-22T12:30:55;96433.66;;;34.24;11.33
45078;BME280;60508;42.622;25.416;2023-02-22T12:33:28;96422.06;;;34.85;11.14
45078;BME280;60508;42.622;25.416;2023-02-22T12:35:58;96422.16;;;35.54;10.52
45078;BME280;60508;42.622;25.416;2023-02-22T12:43:47;96416.63;;;34.08;12.33
45078;BME280;60508;42.622;25.416;2023-02-22T12:46:27;96419.69;;;35.22;11.69
45078;BME280;60508;42.622;25.416;2023-02-22T12:52:30;96417.06;;;35.45;11.13
45078;BME280;60508;42.622;25.416;2023-02-22T12:55:09;96411.16;;;35.74;11.41
45078;BME280;60508;42.622;25.416;2023-02-22T12:57:48;96424.31;;;36.59;10.75
45078;BME280;60508;42.622;25.416;2023-02-22T13:05:59;96418.47;;;34.85;11.81
45078;BME280;60508;42.622;25.416;2023-02-22T13:08:40;96396.94;;;35.61;11.31
45078;BME280;60508;42.622;25.416;2023-02-22T13:16:51;96424.63;;;35.49;11.29
45078;BME280;60508;42.622;25.416;2023-02-22T13:19:44;96411.03;;;35.13;11.74
45078;BME280;60508;42.622;25.416;2023-02-22T13:25:30;96414.47;;;34.86;11.77
45078;BME280;60508;42.622;25.416;2023-02-22T13:36:37;96428.50;;;32.37;12.80
45078;BME280;60508;42.622;25.416;2023-02-22T13:39:23;96414.81;;;33.72;11.98
45078;BME280;60508;42.622;25.416;2023-02-22T13:42:34;96417.84;;;34.63;11.70
45078;BME280;60508;42.622;25.416;2023-02-22T13:45:04;96417.44;;;34.01;11.90
45078;BME280;60508;42.622;25.416;2023-02-22T13:47:58;96422.91;;;33.16;12.76
45078;BME280;60508;42.622;25.416;2023-02-22T13:53:24;96416.44;;;33.55;12.75
45078;BME280;60508;42.622;25.416;2023-02-22T13:55:55;96421.78;;;34.65;11.92
45078;BME280;60508;42.622;25.416;2023-02-22T13:58:23;96413.66;;;33.55;12.68
45078;BME280;60508;42.622;25.416;2023-02-22T14:00:51;96423.28;;;33.33;13.27
45078;BME280;60508;42.622;25.416;2023-02-22T14:03:30;96420.50;;;33.40;13.13
45078;BME280;60508;42.622;25.416;2023-02-22T14:08:46;96430.63;;;34.60;11.97
45078;BME280;60508;42.622;25.416;2023-02-22T14:16:29;96423.03;;;34.64;12.21
45078;BME280;60508;42.622;25.416;2023-02-22T14:19:13;96420.84;;;35.62;11.64
45078;BME280;60508;42.622;25.416;2023-02-22T14:21:59;96433.72;;;35.91;11.13
45078;BME280;60508;42.622;25.416;2023-02-22T14:24:43;96431.00;;;36.14;11.21
45078;BME280;60508;42.622;25.416;2023-02-22T14:27:10;96426.31;;;36.35;11.39
45078;BME280;60508;42.622;25.416;2023-02-22T14:29:36;96430.44;;;36.27;11.43
45078;BME280;60508;42.622;25.416;2023-02-22T14:32:07;96431.75;;;35.88;11.51
45078;BME280;60508;42.622;25.416;2023-02-22T14:34:53;96434.34;;;36.02;11.41
45078;BME280;60508;42.622;25.416;2023-02-22T14:37:25;96423.81;;;35.48;12.04
45078;BME280;60508;42.622;25.416;2023-02-22T14:39:57;96430.72;;;34.46;12.46
45078;BME280;60508;42.622;25.416;2023-02-22T14:44:55;96434.66;;;35.80;11.69
45078;BME280;60508;42.622;25.416;2023-02-22T14:47:39;96430.78;;;36.56;11.29
45078;BME280;60508;42.622;25.416;2023-02-22T14:55:45;96428.28;;;35.42;11.95
45078;BME280;60508;42.622;25.416;2023-02-22T14:58:17;96419.13;;;35.72;11.87
45078;BME280;60508;42.622;25.416;2023-02-22T15:00:47;96417.50;;;33.94;13.00
45078;BME280;60508;42.622;25.416;2023-02-22T15:06:21;96412.97;;;30.19;16.03